Albany, New York
Current Conditions -  °F | °C
As of 11:51 PM on Thursday 18 Dec 2014 (Local Time) from KALB Reporting Station
Overcast Overcast  
Wind Chill: -5°   Ceiling: 4600
Heat Index:   Visibility: 10mi
Dew Point: -4°   Wind: 15mph
Humidity: 72%   Direction: 290°WNW
Pressure: 29.95"   Gusts: NA
Location:  42.65°N, 73.75°W
Report Text: KALB 190451Z 29013KT 10SM FEW022 FEW034 OVC046 01/M04 A2995 RMK AO2 SLP145 T00061039 400280006
Loading
Personal Weather Stations






























Interactive Weather Map New forecast layout! Learn more

10-Day Weather Forecast

Advertisements
Track Severe Weather on mobile